| time (UTC) | temp C | wind direction | speed KPH | gust KPH | rain 1hr cm | rain 24hr cm | rain mn cm | humidity % | barometer mb |
| 20260508083017 | 20 | 45 | 4.8 | 11.3 | 0.00 | 0.03 | 0.00 | 91 | 1013.5 |
| 20260508080017 | 20 | 45 | 1.6 | 11.3 | 0.00 | 0.03 | 0.00 | 91 | 1013.8 |
| 20260508073037 | 20 | 45 | 1.6 | 8.0 | 0.00 | 0.03 | 0.00 | 91 | 1013.8 |
| 20260508070017 | 20 | 45 | 3.2 | 11.3 | 0.00 | 0.03 | 0.00 | 90 | 1013.9 |
| 20260508063017 | 20 | 45 | 3.2 | 8.0 | 0.00 | 0.03 | 0.00 | 90 | 1014.1 |
| 20260508060037 | 20 | 0.0 | 3.2 | 0.00 | 0.03 | 0.00 | 89 | 1014.3 | |
| 20260508053017 | 20 | 0.0 | 6.4 | 0.00 | 0.03 | 0.00 | 89 | 1014.4 | |
| 20260508050017 | 20 | 45 | 1.6 | 14.5 | 0.00 | 0.03 | 0.03 | 88 | 1014.9 |
| 20260508043016 | 21 | 45 | 3.2 | 12.9 | 0.00 | 0.03 | 0.03 | 88 | 1014.8 |
| 20260508040017 | 21 | 45 | 3.2 | 12.9 | 0.00 | 0.03 | 0.03 | 87 | 1015.1 |
| 20260508033016 | 21 | 45 | 4.8 | 12.9 | 0.00 | 0.03 | 0.03 | 86 | 1015.3 |
| 20260508030016 | 22 | 45 | 4.8 | 12.9 | 0.00 | 0.03 | 0.03 | 87 | 1015.2 |
| 20260508023057 | 22 | 45 | 1.6 | 11.3 | 0.00 | 0.03 | 0.03 | 86 | 1014.6 |
| 20260508020016 | 23 | 45 | 4.8 | 11.3 | 0.00 | 0.03 | 0.03 | 86 | 1014.2 |
| 20260508013016 | 23 | 45 | 1.6 | 8.0 | 0.00 | 0.03 | 0.03 | 85 | 1014.4 |
| 20260508010016 | 23 | 0.0 | 6.4 | 0.00 | 0.03 | 0.03 | 85 | 1014.1 | |
| 20260508003016 | 23 | 45 | 4.8 | 12.9 | 0.00 | 0.03 | 0.03 | 84 | 1013.3 |
| 20260508000036 | 24 | 45 | 6.4 | 16.1 | 0.00 | 0.03 | 0.03 | 83 | 1013.4 |
| 20260507233016 | 24 | 45 | 4.8 | 12.9 | 0.00 | 0.03 | 0.03 | 83 | 1013.8 |
| 20260507230015 | 24 | 45 | 6.4 | 16.1 | 0.00 | 0.03 | 0.03 | 82 | 1013.6 |
| 20260507223016 | 25 | 45 | 8.0 | 16.1 | 0.00 | 0.03 | 0.03 | 81 | 1013.5 |
| 20260507220036 | 25 | 45 | 4.8 | 12.9 | 0.00 | 0.03 | 0.03 | 80 | 1013.4 |
| 20260507213015 | 25 | 45 | 3.2 | 12.9 | 0.00 | 0.03 | 0.03 | 79 | 1013.2 |
| 20260507210018 | 25 | 0.0 | 4.8 | 0.00 | 0.03 | 0.03 | 81 | 1013.2 | |
| 20260507203017 | 25 | 0.0 | 4.8 | 0.00 | 0.03 | 0.03 | 82 | 1013.4 | |
| 20260507200017 | 23 | 23 | 1.6 | 6.4 | 0.00 | 0.03 | 0.03 | 84 | 1013.7 |
| 20260507193017 | 23 | 23 | 1.6 | 8.0 | 0.00 | 0.03 | 0.03 | 85 | 1014.0 |
| 20260507190037 | 22 | 23 | 3.2 | 12.9 | 0.00 | 0.03 | 0.03 | 86 | 1014.1 |
| 20260507183017 | 22 | 23 | 3.2 | 9.7 | 0.00 | 0.03 | 0.03 | 86 | 1014.3 |
| 20260507180017 | 22 | 45 | 4.8 | 12.9 | 0.00 | 0.03 | 0.03 | 88 | 1014.5 |
| 20260507173037 | 21 | 23 | 3.2 | 9.7 | 0.00 | 0.03 | 0.03 | 92 | 1014.8 |
| 20260507170017 | 20 | 23 | 4.8 | 9.7 | 0.00 | 0.03 | 0.03 | 94 | 1014.8 |
| 20260507163017 | 20 | 23 | 4.8 | 9.7 | 0.00 | 0.03 | 0.03 | 94 | 1015.1 |
| 20260507160017 | 20 | 23 | 3.2 | 9.7 | 0.00 | 0.03 | 0.03 | 94 | 1015.0 |
| 20260507153036 | 20 | 23 | 6.4 | 11.3 | 0.00 | 0.03 | 0.03 | 95 | 1015.0 |
| 20260507150017 | 20 | 23 | 6.4 | 12.9 | 0.00 | 0.03 | 0.03 | 95 | 1014.9 |
| 20260507143017 | 21 | 23 | 4.8 | 11.3 | 0.03 | 0.03 | 0.03 | 95 | 1014.8 |
| 20260507140016 | 21 | 23 | 4.8 | 9.7 | 0.03 | 0.03 | 0.03 | 95 | 1014.6 |
| 20260507133016 | 21 | 23 | 4.8 | 11.3 | 0.00 | 0.00 | 0.00 | 94 | 1014.4 |
| 20260507130016 | 22 | 0 | 3.2 | 11.3 | 0.00 | 0.00 | 0.00 | 94 | 1014.2 |
| 20260507123036 | 23 | 0 | 4.8 | 14.5 | 0.00 | 0.00 | 0.00 | 94 | 1013.7 |
| 20260507120016 | 25 | 248 | 1.6 | 8.0 | 0.00 | 0.00 | 0.00 | 94 | 1012.9 |
| 20260507113016 | 25 | 248 | 1.6 | 8.0 | 0.00 | 0.00 | 0.00 | 94 | 1012.5 |
| 20260507110036 | 25 | 248 | 1.6 | 6.4 | 0.00 | 0.00 | 0.00 | 93 | 1012.0 |
| 20260507103036 | 25 | 248 | 1.6 | 8.0 | 0.00 | 0.00 | 0.00 | 93 | 1011.8 |
| 20260507100016 | 25 | 248 | 1.6 | 9.7 | 0.00 | 0.00 | 0.00 | 93 | 1011.5 |
| 20260507093016 | 25 | 248 | 1.6 | 9.7 | 0.00 | 0.00 | 0.00 | 92 | 1011.5 |
| 20260507090016 | 25 | 248 | 3.2 | 12.9 | 0.00 | 0.00 | 0.00 | 92 | 1011.4 |